createdAt,value
2018-12-23T00:01:20.851Z,5.62
2018-12-23T00:03:50.367Z,5.17
2018-12-23T00:06:18.879Z,5.60
2018-12-23T00:08:47.405Z,5.17
2018-12-23T00:11:16.283Z,6.23
2018-12-23T00:13:45.099Z,6.17
2018-12-23T00:16:13.731Z,5.37
2018-12-23T00:18:42.395Z,5.40
2018-12-23T00:21:11.572Z,6.43
2018-12-23T00:23:40.513Z,5.10
2018-12-23T00:26:08.956Z,5.60
2018-12-23T00:28:37.471Z,5.87
2018-12-23T00:31:06.092Z,4.53
2018-12-23T00:33:34.696Z,5.40
2018-12-23T00:36:03.386Z,5.03
2018-12-23T00:38:31.958Z,5.80
2018-12-23T00:41:00.963Z,5.87
2018-12-23T00:43:30.102Z,5.03
2018-12-23T00:45:58.907Z,5.90
2018-12-23T00:48:27.430Z,6.47
2018-12-23T00:50:56.310Z,5.87
2018-12-23T00:53:28.307Z,6.37
2018-12-23T00:55:58.071Z,7.40
2018-12-23T00:58:26.555Z,10.67
2018-12-23T01:00:55.098Z,8.23
2018-12-23T01:03:23.651Z,7.83
2018-12-23T01:05:52.531Z,7.30
2018-12-23T01:08:21.418Z,6.35
2018-12-23T01:10:49.891Z,6.13
2018-12-23T01:13:18.366Z,7.53
2018-12-23T01:15:47.155Z,6.50
2018-12-23T01:18:15.654Z,8.03
2018-12-23T01:20:44.147Z,8.67
2018-12-23T01:23:12.710Z,11.33
2018-12-23T01:25:41.183Z,11.43
2018-12-23T01:28:09.758Z,6.57
2018-12-23T01:30:38.918Z,6.30
2018-12-23T01:33:07.931Z,5.80
2018-12-23T01:35:37.225Z,4.67
2018-12-23T01:38:05.018Z,6.73
2018-12-23T01:40:33.670Z,11.63
2018-12-23T01:43:02.213Z,11.73
2018-12-23T01:45:30.714Z,10.77
2018-12-23T01:47:59.490Z,10.07
2018-12-23T01:50:27.959Z,11.43
2018-12-23T01:52:56.823Z,8.43
2018-12-23T01:55:25.294Z,10.67
2018-12-23T01:57:53.739Z,8.50
2018-12-23T02:00:22.991Z,7.27
2018-12-23T02:02:51.889Z,6.67
2018-12-23T02:05:20.586Z,4.77
2018-12-23T02:07:49.073Z,4.27
2018-12-23T02:10:17.566Z,4.90
2018-12-23T02:12:46.498Z,4.13
2018-12-23T02:15:14.986Z,3.95
2018-12-23T02:17:43.726Z,4.20
2018-12-23T02:20:12.629Z,3.90
2018-12-23T02:22:41.719Z,3.67
2018-12-23T02:25:10.342Z,3.27
2018-12-23T02:27:38.942Z,3.00
2018-12-23T02:30:08.450Z,2.40
2018-12-23T02:32:37.158Z,3.10
2018-12-23T02:35:06.342Z,3.10
2018-12-23T02:37:34.858Z,3.80
2018-12-23T02:40:03.350Z,4.20
2018-12-23T02:42:32.342Z,4.33
2018-12-23T02:45:00.906Z,3.60
2018-12-23T02:51:00.310Z,3.53
2018-12-23T02:53:28.734Z,3.73
2018-12-23T02:55:57.194Z,3.60
2018-12-23T02:58:25.767Z,4.07
2018-12-23T03:00:54.326Z,3.97
2018-12-23T03:03:22.806Z,4.17
2018-12-23T03:05:51.290Z,4.10
2018-12-23T03:08:19.927Z,3.77
2018-12-23T03:10:48.725Z,3.50
2018-12-23T03:13:17.313Z,2.53
2018-12-23T03:15:45.866Z,2.90
2018-12-23T03:18:15.053Z,2.87
2018-12-23T03:20:43.647Z,3.03
2018-12-23T03:23:12.193Z,3.10
2018-12-23T03:25:41.134Z,3.05
2018-12-23T03:28:09.676Z,2.27
2018-12-23T03:30:38.342Z,3.00
2018-12-23T03:33:06.893Z,2.90
2018-12-23T03:35:35.486Z,2.40
2018-12-23T03:38:05.036Z,2.70
2018-12-23T03:40:33.809Z,2.33
2018-12-23T03:43:02.545Z,2.80
2018-12-23T03:45:30.996Z,2.40
2018-12-23T03:47:59.655Z,2.83
2018-12-23T03:50:28.232Z,4.07
2018-12-23T03:52:56.772Z,4.70
2018-12-23T03:55:25.413Z,6.03
2018-12-23T03:57:53.924Z,3.43
2018-12-23T04:00:22.520Z,3.10
2018-12-23T04:02:51.140Z,2.83
2018-12-23T04:05:20.076Z,3.00
2018-12-23T04:07:48.859Z,2.83
2018-12-23T04:10:17.388Z,3.37
2018-12-23T04:12:45.936Z,4.23
2018-12-23T04:15:14.663Z,4.20
2018-12-23T04:17:43.176Z,5.67
2018-12-23T04:20:11.744Z,5.77
2018-12-23T04:22:40.502Z,5.30
2018-12-23T04:25:09.576Z,5.72
2018-12-23T04:27:38.304Z,5.03
2018-12-23T04:30:07.072Z,5.60
2018-12-23T04:32:35.753Z,5.13
2018-12-23T04:35:04.878Z,5.33
2018-12-23T04:37:33.950Z,6.23
2018-12-23T04:40:03.451Z,6.37
2018-12-23T04:42:32.275Z,4.83
2018-12-23T04:45:01.004Z,5.00
2018-12-23T04:47:29.845Z,4.87
2018-12-23T04:49:58.539Z,5.47
2018-12-23T04:52:27.172Z,5.33
2018-12-23T04:54:57.596Z,4.73
2018-12-23T04:57:26.348Z,5.10
2018-12-23T04:59:55.073Z,5.50
2018-12-23T05:02:23.857Z,5.33
2018-12-23T05:04:52.932Z,5.40
2018-12-23T05:07:21.648Z,5.17
2018-12-23T05:09:50.620Z,5.87
2018-12-23T05:12:19.100Z,5.50
2018-12-23T05:14:47.556Z,5.60
2018-12-23T05:17:16.064Z,5.23
2018-12-23T05:19:44.989Z,5.77
2018-12-23T05:22:14.875Z,5.40
2018-12-23T05:24:44.001Z,5.47
2018-12-23T05:27:12.792Z,5.33
2018-12-23T05:29:41.384Z,5.50
2018-12-23T05:32:09.951Z,5.67
2018-12-23T05:34:38.756Z,5.50
2018-12-23T05:37:07.650Z,4.50
2018-12-23T05:39:36.732Z,5.50
2018-12-23T05:42:05.523Z,5.70
2018-12-23T05:44:34.596Z,6.00
2018-12-23T05:47:03.528Z,5.80
2018-12-23T05:49:32.312Z,5.67
2018-12-23T05:52:01.139Z,5.43
2018-12-23T05:54:29.707Z,6.30
2018-12-23T05:56:58.303Z,6.00
2018-12-23T05:59:26.856Z,5.70
2018-12-23T06:01:56.019Z,5.23
2018-12-23T06:04:24.896Z,5.60
2018-12-23T06:07:00.786Z,5.33
2018-12-23T06:09:22.887Z,5.73
2018-12-23T06:11:51.775Z,5.67
2018-12-23T06:14:20.516Z,7.23
2018-12-23T06:16:49.511Z,5.80
2018-12-23T06:19:18.327Z,6.97
2018-12-23T06:21:47.675Z,7.57
2018-12-23T06:24:16.414Z,7.10
2018-12-23T06:26:45.235Z,6.27
2018-12-23T06:29:14.331Z,6.57
2018-12-23T06:31:42.771Z,6.43
2018-12-23T06:34:11.298Z,5.80
2018-12-23T06:36:39.843Z,6.13
2018-12-23T06:39:08.287Z,7.07
2018-12-23T06:41:37.022Z,6.43
2018-12-23T06:44:05.447Z,6.93
2018-12-23T06:46:34.150Z,6.47
2018-12-23T06:49:02.610Z,6.03
2018-12-23T06:51:31.127Z,6.33
2018-12-23T06:54:06.454Z,5.80
2018-12-23T06:56:35.059Z,5.60
2018-12-23T06:59:04.326Z,5.33
2018-12-23T07:01:32.926Z,5.77
2018-12-23T07:04:01.699Z,6.67
2018-12-23T07:06:30.723Z,6.47
2018-12-23T07:08:59.538Z,8.83
2018-12-23T07:11:28.394Z,7.93
2018-12-23T07:13:57.203Z,6.37
2018-12-23T07:16:26.966Z,5.53
2018-12-23T07:18:55.862Z,6.53
2018-12-23T07:21:24.398Z,6.27
2018-12-23T07:23:52.858Z,5.90
2018-12-23T07:26:21.738Z,5.78
2018-12-23T07:28:50.334Z,6.60
2018-12-23T07:34:50.726Z,4.70
2018-12-23T07:37:27.247Z,4.70
2018-12-23T07:39:47.895Z,5.23
2018-12-23T07:42:16.511Z,5.17
2018-12-23T07:44:45.146Z,5.33
2018-12-23T07:47:13.829Z,5.40
2018-12-23T07:49:42.794Z,6.20
2018-12-23T07:52:11.294Z,5.20
2018-12-23T07:54:39.942Z,6.27
2018-12-23T07:57:09.866Z,5.63
2018-12-23T07:59:40.273Z,6.10
2018-12-23T08:02:10.938Z,6.20
2018-12-23T08:04:39.501Z,6.50
2018-12-23T08:07:08.157Z,5.70
2018-12-23T08:09:36.865Z,5.40
2018-12-23T08:12:05.486Z,6.33
2018-12-23T08:14:34.119Z,5.60
2018-12-23T08:17:02.597Z,6.67
2018-12-23T08:19:31.729Z,7.20
2018-12-23T08:22:00.505Z,6.90
2018-12-23T08:24:29.089Z,7.07
2018-12-23T08:26:57.589Z,6.53
2018-12-23T08:29:26.137Z,6.07
2018-12-23T08:31:54.690Z,5.90
2018-12-23T08:34:23.345Z,5.67
2018-12-23T08:36:52.137Z,6.23
2018-12-23T08:39:20.949Z,5.93
2018-12-23T08:41:50.078Z,6.33
2018-12-23T08:44:18.607Z,6.43
2018-12-23T08:46:47.101Z,6.83
2018-12-23T08:49:16.011Z,8.03
2018-12-23T08:51:47.401Z,8.53
2018-12-23T08:54:15.893Z,7.63
2018-12-23T08:56:44.658Z,6.23
2018-12-23T08:59:13.400Z,7.57
2018-12-23T09:01:41.893Z,7.20
2018-12-23T09:04:10.621Z,5.43
2018-12-23T09:06:39.121Z,6.27
2018-12-23T09:09:07.941Z,6.07
2018-12-23T09:11:42.813Z,6.40
2018-12-23T09:14:05.006Z,6.80
2018-12-23T09:16:33.629Z,6.20
2018-12-23T09:19:02.877Z,6.10
2018-12-23T09:21:31.477Z,5.17
2018-12-23T09:24:00.125Z,5.20
2018-12-23T09:26:28.625Z,6.07
2018-12-23T09:28:57.260Z,6.90
2018-12-23T09:31:26.386Z,6.67
2018-12-23T09:33:54.917Z,7.23
2018-12-23T09:36:23.781Z,7.73
2018-12-23T09:38:52.281Z,8.50
2018-12-23T09:41:20.899Z,7.33
2018-12-23T09:43:49.705Z,6.63
2018-12-23T09:46:18.497Z,7.37
2018-12-23T09:48:47.265Z,6.30
2018-12-23T09:51:16.124Z,6.00
2018-12-23T09:53:45.072Z,8.40
2018-12-23T09:56:13.876Z,10.37
2018-12-23T09:58:42.705Z,12.37
2018-12-23T10:01:11.709Z,13.53
2018-12-23T10:03:40.553Z,11.60
2018-12-23T10:06:09.088Z,14.63
2018-12-23T10:08:37.897Z,12.10
2018-12-23T10:11:06.404Z,14.13
2018-12-23T10:13:35.289Z,13.07
2018-12-23T10:16:04.164Z,14.83
2018-12-23T10:18:32.632Z,15.20
2018-12-23T10:21:01.172Z,16.43
2018-12-23T10:23:29.697Z,13.53
2018-12-23T10:26:00.152Z,20.13
2018-12-23T10:28:28.676Z,20.07
2018-12-23T10:30:57.230Z,18.63
2018-12-23T10:33:25.743Z,17.87
2018-12-23T10:35:54.493Z,16.37
2018-12-23T10:38:22.989Z,12.97
2018-12-23T10:40:51.524Z,16.43
2018-12-23T10:43:20.365Z,15.10
2018-12-23T10:45:49.225Z,18.17
2018-12-23T10:48:17.692Z,14.47
2018-12-23T10:50:46.201Z,15.20
2018-12-23T10:53:16.342Z,14.00
2018-12-23T10:55:46.813Z,11.77
2018-12-23T10:58:16.168Z,13.53
2018-12-23T11:00:44.801Z,14.57
2018-12-23T11:03:13.640Z,15.77
2018-12-23T11:05:42.456Z,14.87
2018-12-23T11:08:11.092Z,15.43
2018-12-23T11:10:39.713Z,14.30
2018-12-23T11:13:08.419Z,16.20
2018-12-23T11:15:36.985Z,15.23
2018-12-23T11:18:05.636Z,12.47
2018-12-23T11:20:34.289Z,13.50
2018-12-23T11:23:03.267Z,11.57
2018-12-23T11:25:32.204Z,8.90
2018-12-23T11:28:01.185Z,9.23
2018-12-23T11:30:29.912Z,9.70
2018-12-23T11:32:58.731Z,10.17
2018-12-23T11:35:27.263Z,10.70
2018-12-23T11:38:10.471Z,9.53
2018-12-23T11:40:39.107Z,9.27
2018-12-23T11:43:07.660Z,9.70
2018-12-23T11:45:37.039Z,11.13
2018-12-23T11:48:05.571Z,10.50
2018-12-23T11:50:34.251Z,12.00
2018-12-23T11:53:02.893Z,12.00
2018-12-23T11:55:31.412Z,10.20
2018-12-23T11:58:00.061Z,10.97
2018-12-23T12:00:28.651Z,11.77
2018-12-23T12:02:57.199Z,12.33
2018-12-23T12:05:26.339Z,10.60
2018-12-23T12:07:54.891Z,11.23
2018-12-23T12:10:23.491Z,11.15
2018-12-23T12:12:52.020Z,10.43
2018-12-23T12:15:20.591Z,11.67
2018-12-23T12:17:49.088Z,10.03
2018-12-23T12:20:18.497Z,10.57
2018-12-23T12:22:46.976Z,11.63
2018-12-23T12:25:15.484Z,13.50
2018-12-23T12:27:44.100Z,12.97
2018-12-23T12:30:12.626Z,16.57
2018-12-23T12:32:41.156Z,14.43
2018-12-23T12:35:09.936Z,15.77
2018-12-23T12:37:39.170Z,16.67
2018-12-23T12:40:07.680Z,15.43
2018-12-23T12:42:36.196Z,15.67
2018-12-23T12:45:04.960Z,13.60
2018-12-23T12:47:33.688Z,17.77
2018-12-23T12:50:02.736Z,18.03
2018-12-23T12:52:31.434Z,14.07
2018-12-23T12:54:59.995Z,13.87
2018-12-23T12:57:28.920Z,13.17
2018-12-23T12:59:58.068Z,12.20
2018-12-23T13:02:26.608Z,14.33
2018-12-23T13:04:57.872Z,11.47
2018-12-23T13:07:26.396Z,13.27
2018-12-23T13:10:04.744Z,12.27
2018-12-23T13:12:33.264Z,11.53
2018-12-23T13:15:01.856Z,11.88
2018-12-23T13:17:30.496Z,12.77
2018-12-23T13:19:58.974Z,13.43
2018-12-23T13:22:27.508Z,12.30
2018-12-23T13:24:56.072Z,13.40
2018-12-23T13:27:24.624Z,15.07
2018-12-23T13:29:53.152Z,13.10
2018-12-23T13:32:22.952Z,13.13
2018-12-23T13:34:51.548Z,15.83
2018-12-23T13:37:20.040Z,15.87
2018-12-23T13:39:51.283Z,14.10
2018-12-23T13:42:37.663Z,14.70
2018-12-23T13:47:19.827Z,16.20
2018-12-23T13:50:04.451Z,18.23
2018-12-23T13:52:41.482Z,17.90
2018-12-23T13:55:20.074Z,17.63
2018-12-23T13:58:01.491Z,20.60
2018-12-23T14:00:39.490Z,18.23
2018-12-23T14:03:25.214Z,18.63
2018-12-23T14:06:11.530Z,20.57
2018-12-23T14:11:02.250Z,24.60
2018-12-23T14:13:31.037Z,23.20
2018-12-23T14:15:59.502Z,26.23
2018-12-23T14:18:28.022Z,29.03
2018-12-23T14:20:56.486Z,25.83
2018-12-23T14:23:25.275Z,26.33
2018-12-23T14:25:53.810Z,24.93
2018-12-23T14:28:22.327Z,23.70
2018-12-23T14:30:51.530Z,24.40
2018-12-23T14:33:20.190Z,26.23
2018-12-23T14:35:49.559Z,23.40
2018-12-23T14:38:18.349Z,24.03
2018-12-23T14:40:47.309Z,23.80
2018-12-23T14:43:16.270Z,22.83
2018-12-23T14:45:45.146Z,22.13
2018-12-23T14:48:13.870Z,22.13
2018-12-23T14:50:42.610Z,22.27
2018-12-23T14:53:12.246Z,20.40
2018-12-23T14:55:41.470Z,20.30
2018-12-23T14:58:11.225Z,20.33
2018-12-23T15:01:03.230Z,20.23
2018-12-23T15:03:32.255Z,18.53
2018-12-23T15:06:01.350Z,20.68
2018-12-23T15:08:31.158Z,20.37
2018-12-23T15:10:59.854Z,19.77
2018-12-23T15:13:28.511Z,19.93
2018-12-23T15:15:58.126Z,21.20
2018-12-23T15:18:27.126Z,23.53
2018-12-23T15:20:57.430Z,18.77
2018-12-23T15:23:25.941Z,17.97
2018-12-23T15:25:54.746Z,18.07
2018-12-23T15:28:23.250Z,17.37
2018-12-23T15:30:51.787Z,15.40
2018-12-23T15:33:21.355Z,16.13
2018-12-23T15:35:50.162Z,16.43
2018-12-23T15:38:19.110Z,16.80
2018-12-23T15:40:47.658Z,15.57
2018-12-23T15:43:16.269Z,16.63
2018-12-23T15:45:45.526Z,16.80
2018-12-23T15:48:14.493Z,17.50
2018-12-23T15:50:43.334Z,16.57
2018-12-23T15:53:11.962Z,15.83
2018-12-23T15:55:40.462Z,15.80
2018-12-23T15:58:09.880Z,15.00
2018-12-23T16:00:37.782Z,15.70
2018-12-23T16:03:06.253Z,15.10
2018-12-23T16:05:34.747Z,13.80
2018-12-23T16:08:03.591Z,13.73
2018-12-23T16:10:32.086Z,13.57
2018-12-23T16:13:00.546Z,14.40
2018-12-23T16:15:29.042Z,17.30
2018-12-23T16:17:57.494Z,18.77
2018-12-23T16:20:26.198Z,18.27
2018-12-23T16:23:59.565Z,20.17
2018-12-23T16:26:28.539Z,19.00
2018-12-23T16:28:57.538Z,18.87
2018-12-23T16:31:42.286Z,18.13
2018-12-23T16:34:11.938Z,18.82
2018-12-23T16:39:36.148Z,17.13
2018-12-23T16:42:09.067Z,19.90
2018-12-23T16:44:38.084Z,20.67
2018-12-23T16:50:15.455Z,20.30
2018-12-23T16:52:44.488Z,21.17
2018-12-23T16:55:18.392Z,20.37
2018-12-23T16:57:50.700Z,24.53
2018-12-23T17:00:19.596Z,23.23
2018-12-23T17:02:48.528Z,20.80
2018-12-23T17:05:17.348Z,20.05
2018-12-23T17:07:46.176Z,18.47
2018-12-23T17:10:15.140Z,18.17
2018-12-23T17:12:44.005Z,18.10
2018-12-23T17:15:12.820Z,18.40
2018-12-23T17:17:41.916Z,18.67
2018-12-23T17:20:13.268Z,18.40
2018-12-23T17:22:42.116Z,17.77
2018-12-23T17:25:11.120Z,19.80
2018-12-23T17:27:39.856Z,20.60
2018-12-23T17:30:09.776Z,22.20
2018-12-23T17:32:38.624Z,19.63
2018-12-23T17:35:07.636Z,17.63
2018-12-23T17:37:36.136Z,16.57
2018-12-23T17:40:05.120Z,13.37
2018-12-23T17:42:33.948Z,11.23
2018-12-23T17:45:02.468Z,12.80
2018-12-23T17:47:30.980Z,12.60
2018-12-23T17:49:59.876Z,12.43
2018-12-23T17:52:28.848Z,14.33
2018-12-23T17:54:57.656Z,12.70
2018-12-23T17:57:26.623Z,12.30
2018-12-23T17:59:55.283Z,14.60
2018-12-23T18:02:23.927Z,15.33
2018-12-23T18:04:52.924Z,14.50
2018-12-23T18:07:21.724Z,15.20
2018-12-23T18:09:50.292Z,13.95
2018-12-23T18:12:18.907Z,15.17
2018-12-23T18:14:47.571Z,19.17
2018-12-23T18:17:16.211Z,18.43
2018-12-23T18:19:45.031Z,18.63
2018-12-23T18:22:13.507Z,19.67
2018-12-23T18:24:41.963Z,19.13
2018-12-23T18:27:10.507Z,17.83
2018-12-23T18:29:39.478Z,17.10
2018-12-23T18:32:08.342Z,17.77
2018-12-23T18:34:37.250Z,17.40
2018-12-23T18:37:11.963Z,18.10
2018-12-23T18:39:42.943Z,18.70
2018-12-23T18:42:11.600Z,17.43
2018-12-23T18:44:40.100Z,16.10
2018-12-23T18:47:08.549Z,15.27
2018-12-23T18:49:37.124Z,15.53
2018-12-23T18:52:05.717Z,15.10
2018-12-23T18:54:34.208Z,14.90
2018-12-23T18:57:07.173Z,15.83
2018-12-23T18:59:39.357Z,14.93
2018-12-23T19:02:11.359Z,16.47
2018-12-23T19:04:40.057Z,17.97
2018-12-23T19:07:08.765Z,18.23
2018-12-23T19:09:46.325Z,20.90
2018-12-23T19:14:33.637Z,44.37
2018-12-23T19:18:11.345Z,33.83
2018-12-23T19:20:54.199Z,35.57
2018-12-23T19:23:40.811Z,36.90
2018-12-23T19:28:28.455Z,32.00
2018-12-23T19:33:18.818Z,22.40
2018-12-23T19:35:56.442Z,38.50
2018-12-23T19:38:54.642Z,26.40
2018-12-23T19:41:37.624Z,22.60
2018-12-23T19:46:25.510Z,22.23
2018-12-23T19:49:04.765Z,23.23
2018-12-23T19:51:44.213Z,27.00
2018-12-23T19:57:28.985Z,21.93
2018-12-23T20:00:14.349Z,19.63
2018-12-23T20:04:54.629Z,17.37
2018-12-23T20:07:42.093Z,18.17
2018-12-23T20:10:22.533Z,16.83
2018-12-23T20:15:24.317Z,17.10
2018-12-23T20:19:11.117Z,19.17
2018-12-23T20:24:26.277Z,18.20
2018-12-23T20:27:21.753Z,20.70
2018-12-23T20:32:05.603Z,20.17
2018-12-23T20:34:48.061Z,20.37
2018-12-23T20:39:31.395Z,24.33
2018-12-23T20:44:13.987Z,21.17
2018-12-23T20:46:53.891Z,21.03
2018-12-23T20:49:33.556Z,20.83
2018-12-23T20:52:33.026Z,20.20
2018-12-23T20:56:18.891Z,16.83
2018-12-23T20:59:13.558Z,15.37
2018-12-23T21:04:31.802Z,14.90
2018-12-23T21:07:21.116Z,16.40
2018-12-23T21:10:00.810Z,15.33
2018-12-23T21:12:45.089Z,15.67
2018-12-23T21:15:26.653Z,16.13
2018-12-23T21:18:06.353Z,14.43
2018-12-23T21:21:27.301Z,14.50
2018-12-23T21:26:18.439Z,14.33
2018-12-23T21:29:03.916Z,17.57
2018-12-23T21:31:57.918Z,21.50
2018-12-23T21:35:14.815Z,20.87
2018-12-23T21:37:54.131Z,19.17
2018-12-23T21:40:40.652Z,21.73
2018-12-23T21:43:54.186Z,20.70
2018-12-23T21:49:13.213Z,18.20
2018-12-23T21:55:03.026Z,17.53
2018-12-23T21:57:45.567Z,17.90
2018-12-23T22:02:40.359Z,16.70
2018-12-23T22:07:22.454Z,18.93
2018-12-23T22:09:59.873Z,16.87
2018-12-23T22:13:41.643Z,18.60
2018-12-23T22:16:10.230Z,18.60
2018-12-23T22:18:39.044Z,18.30
2018-12-23T22:21:08.103Z,18.50
2018-12-23T22:54:58.471Z,17.63
2018-12-23T22:58:31.551Z,19.83
2018-12-23T23:07:47.867Z,17.17
2018-12-23T23:15:16.015Z,17.23
2018-12-23T23:17:46.219Z,17.00
2018-12-23T23:20:15.139Z,16.67
2018-12-23T23:25:32.934Z,19.30
2018-12-23T23:28:14.123Z,18.83
2018-12-23T23:30:43.551Z,19.70
2018-12-23T23:33:13.335Z,17.60
2018-12-23T23:35:42.347Z,16.20
2018-12-23T23:38:12.050Z,14.97
2018-12-23T23:40:40.979Z,13.17
2018-12-23T23:43:09.979Z,12.10
2018-12-23T23:51:32.238Z,9.33
2018-12-23T23:54:34.822Z,8.43
